26 de septiembre de 2022

Hora Código Tiempo Temp. Visibilidad Cielo nuboso Viento METAR/SPECI
19:55
V
16 °C 10 km+ - 020° 020° 6 kt METAR LIPI 261755Z 02006KT 9999 SCT030 SCT040 16/13 Q1004
18:55
V
17 °C 10 km+ 3.000 ft 060° 060° 4 kt METAR LIPI 261655Z 06004KT 9999 BKN030 17/12 Q1004
17:55
V
18 °C 10 km+ - 050° 050° 5 kt METAR LIPI 261555Z 05005KT 9999 SCT030 18/12 Q1004
16:55
V
18 °C 10 km+ - 030° 030° 6 kt METAR LIPI 261455Z 03006KT 9999 FEW050 18/12 Q1004
15:55
V
17 °C 10 km+ - 010° 010° 8 kt METAR LIPI 261355Z 01008KT 9999 SCT030 17/11 Q1005
14:55
V
19 °C 10 km+ - 210° 210° 5 kt METAR LIPI 261255Z 21005KT 9999 SCT020TCU SCT040 19/14 Q1005
13:55
V
19 °C 10 km+ - 160° 160° 8 kt METAR LIPI 261155Z 16008KT 9999 SCT020TCU SCT050 19/14 Q1006 RMK BKN VIS MIN 9999 WIND THR06 20007KT WIND THR24 19009KT BLU
12:55
V
20 °C 10 km+ - 110° 110° 5 kt METAR LIPI 261055Z 11005KT 9999 SCT015 SCT030 20/15 Q1007 RMK BKN VIS MIN 9999 WIND THR06 17006KT WIND THR24 15005KT BLU
11:55
V
18 °C 10 km+ - 090° 090° 3 kt METAR LIPI 260955Z 09003KT 9999 SCT010 SCT030 18/14 Q1007 RMK BKN VIS MIN 9999 WIND THR06 10004KT WIND THR24 02004KT BLU
10:55
V
17 °C 10 km+ 3.500 ft 040° 040° 3 kt METAR LIPI 260855Z 04003KT 9999 SCT030 BKN035 17/14 Q1007
09:55
V
16 °C 10 km+ 3.300 ft 010° 010° 2 kt METAR LIPI 260755Z 01002KT 9999 SCT014 BKN033 16/13 Q1008
08:55
V
15 °C 10 km+ - 040° 040° 4 kt METAR LIPI 260655Z 04004KT 9999 FEW007 SCT030 15/13 Q1007
07:55
V
14 °C 10 km+ 3.000 ft Var Var 1 kt METAR LIPI 260555Z VRB01KT 9999 SCT007 BKN030 14/12 Q1007 RMK BKN VIS MIN 9999 WIND THR06 VRB01KT WIND THR24 VRB01KT BLU
06:55
V
13 °C 10 km+ 3.000 ft 350° 350° 4 kt METAR LIPI 260455Z 35004KT 9999 FEW007 BKN030 13/11 Q1006
05:55
M
13 °C 7 km - 290° 290° 2 kt METAR LIPI 260355Z 29002KT 7000 FEW002 SCT027 13/11 Q1007
04:55
I
13 °C 3,5 km - Var Var 2 kt METAR LIPI 260255Z VRB02KT 3500 BR FEW002 SCT025 13/12 Q1007 RMK SCT VIS MIN 3500 WIND THR06 VRB02KT WIND THR24 VRB02KT YLO
03:55
V
14 °C 10 km+ - Var Var 2 kt METAR LIPI 260155Z VRB02KT 9999 FEW080 14/12 Q1007
02:55
V
15 °C 10 km+ 5.000 ft 330° 330° 3 kt METAR LIPI 260055Z 33003KT 9999 SCT020 BKN050 15/13 Q1008
01:55
V
15 °C 10 km+ 9.000 ft 350° 350° 2 kt METAR LIPI 252355Z 35002KT 9999 FEW020 SCT050 BKN090 15/13 Q1008
00:55
V
16 °C 10 km+ 10.000 ft 360° 360° 1 kt METAR LIPI 252255Z 36001KT 9999 FEW020 SCT050 BKN100 16/14 Q1008 RMK BKN VIS MIN 9999 WIND THR06 01001KT WIND THR24 01001KT BLU

25 de septiembre de 2022

Hora Código Tiempo Temp. Visibilidad Cielo nuboso Viento METAR/SPECI
23:55
V
16 °C 10 km+ 10.000 ft 350° 350° 1 kt METAR LIPI 252155Z 35001KT 9999 FEW020 SCT055 BKN100 16/14 Q1009 RMK BKN VIS MIN 9999 WIND THR06 03001KT WIND THR24 02002KT BLU
22:55
V
15 °C 10 km+ - 030° 030° 2 kt METAR LIPI 252055Z 03002KT 9999 FEW020 SCT055 15/13 Q1009
21:55
V
15 °C 10 km+ - 030° 030° 2 kt METAR LIPI 251955Z 03002KT 9999 FEW055 SCT100 15/14 Q1010
20:55
V
16 °C 10 km+ - 080° 080° 4 kt METAR LIPI 251855Z 08004KT 9999 FEW070 SCT100 16/14 Q1010
19:55
V
17 °C 10 km+ - 080° 080° 4 kt METAR LIPI 251755Z 08004KT 9999 FEW060 SCT100 17/15 Q1010
18:55
V
18 °C 10 km+ - 070° 070° 4 kt METAR LIPI 251655Z 07004KT 9999 SCT050 SCT100 18/15 Q1010 RMK BKN VIS MIN 9999 WIND THR06 09004KT WIND THR24 07004KT BLU
17:55
V
19 °C 10 km+ 6.500 ft 080° 080° 4 kt METAR LIPI 251555Z 08004KT 9999 FEW040 SCT060 BKN065 19/14 Q1010
16:55
V
19 °C 10 km+ 9.000 ft 060° 060° 2 kt METAR LIPI 251455Z 06002KT 9999 FEW040 BKN090 19/14 Q1010
15:55
V
19 °C 10 km+ - 280° 280° 1 kt METAR LIPI 251355Z 28001KT 9999 FEW025 SCT060 19/14 Q1010
14:55
V
18 °C 10 km+ 7.000 ft 030° 030° 4 kt METAR LIPI 251255Z 03004KT 9999 FEW025 BKN070 18/13 Q1011 RMK BKN VIS MIN 9999 WIND THR06 06005KT WIND THR24 02004KT BLU
13:55
V
18 °C 10 km+ - 360° 360° 5 kt METAR LIPI 251155Z 36005KT 9999 SCT020 SCT025 18/14 Q1011
12:55
M
17 °C 10 km+ 2.000 ft 330° 330° 7 kt METAR LIPI 251055Z 33007KT 9999 FEW016 BKN020 17/13 Q1011
11:55
M
17 °C 10 km+ 1.800 ft 340° 340° 7 kt METAR LIPI 250955Z 34007KT 9999 FEW015 BKN018 17/13 Q1011
10:55
M
15 °C 10 km+ 1.900 ft 330° 330° 5 kt METAR LIPI 250855Z 33005KT 9999 FEW013 SCT016 BKN019 15/13 Q1011
09:55
M
15 °C 10 km+ 1.400 ft 350° 350° 6 kt METAR LIPI 250755Z 35006KT 9999 FEW010 SCT012 BKN014 15/13 Q1010
08:55
M
14 °C 10 km+ 2.000 ft 350° 350° 8 kt METAR LIPI 250655Z 35008KT 9999 SCT010 BKN020 14/14 Q1010 RMK OVC VIS MIN 9999 WIND THR06 02008KT WIND THR24 36006KT WHT
07:55
M
14 °C 10 km+ 1.500 ft 340° 340° 9 kt METAR LIPI 250555Z 34009KT 9999 -RA SCT010 BKN015 14/14 Q1010 RERA
06:55
M
14 °C 6 km 2.000 ft 080° 080° 7 kt METAR LIPI 250455Z 08007KT 6000 RA SCT005 BKN020 14/14 Q1010 RERA
05:55
M
14 °C 6 km 2.000 ft 350° 350° 11 kt METAR LIPI 250355Z 35011KT 6000 RA SCT010 BKN020 14/14 Q1011 RMK OVC VIS MIN 6000 WIND THR06 05009KT WIND THR24 36012KT WHT
04:55
M
14 °C 6 km 2.000 ft 060° 060° 4 kt METAR LIPI 250255Z 06004KT 6000 RA SCT005 BKN020 14/14 Q1012
03:55
M
14 °C 6 km 2.000 ft 010° 010° 9 kt METAR LIPI 250155Z 01009KT 6000 RA SCT010 BKN020 14/14 Q1012
02:55
M
14 °C 6 km 1.500 ft 030° 030° 9 kt METAR LIPI 250055Z 03009KT 6000 RA SCT010 BKN015 14/14 Q1013 RMK OVC VIS MIN 6000 WIND THR06 06010KT WIND THR24 04009KT WHT
01:55
M
14 °C 6 km 2.000 ft 070° 070° 6 kt METAR LIPI 242355Z 07006KT 6000 -RA SCT005 BKN020 14/14 Q1014
00:55
M
15 °C 6 km 1.500 ft 050° 050° 6 kt METAR LIPI 242255Z 05006KT 6000 -RA SCT005 BKN015 15/14 Q1014

24 de septiembre de 2022

Hora Código Tiempo Temp. Visibilidad Cielo nuboso Viento METAR/SPECI
23:55
M
15 °C 10 km+ 1.500 ft 080° 080° 6 kt METAR LIPI 242155Z 08006KT 9999 -RA SCT010 BKN015 15/14 Q1015
22:55
V
15 °C 10 km+ 8.000 ft 010° 010° 2 kt METAR LIPI 242055Z 01002KT 9999 SCT050 BKN080 15/12 Q1015 RMK OVC VIS MIN 9999 WIND THR06 05003KT WIND THR24 04003KT BLU
21:55
V
15 °C 10 km+ 7.000 ft 340° 340° 2 kt METAR LIPI 241955Z 34002KT 9999 SCT050 BKN070 15/13 Q1015
20:55
V
16 °C 10 km+ 8.000 ft 360° 360° 3 kt METAR LIPI 241855Z 36003KT 9999 SCT050 BKN080 16/14 Q1015
19:55
V
16 °C 10 km+ 8.000 ft 330° 330° 4 kt METAR LIPI 241755Z 33004KT 9999 SCT050 BKN080 16/14 Q1015
18:55
V
17 °C 10 km+ 6.000 ft 320° 320° 3 kt METAR LIPI 241655Z 32003KT 9999 FEW025 SCT050 BKN060 17/14 Q1015
17:55
V
18 °C 10 km+ 6.000 ft 080° 080° 4 kt METAR LIPI 241555Z 08004KT 9999 FEW025 SCT050 BKN060 18/15 Q1015
16:55
V
19 °C 10 km+ 6.000 ft 360° 360° 3 kt METAR LIPI 241455Z 36003KT 9999 FEW025 SCT050 BKN060 19/13 Q1015
Datos más antiguos

Nosotros y terceros seguimos tu comportamiento en Internet en nuestro sitio web con cookies. Si continúas, asumimos que estás de acuerdo con nuestra política de cookies. Más información